sensor_id;sensor_type;location;lat;lon;timestamp;P1;durP1;ratioP1;P2;durP2;ratioP2
20065;SDS011;10193;48.884;9.182;2022-10-20T00:00:31;4.80;;;4.40;;
20065;SDS011;10193;48.884;9.182;2022-10-20T00:02:59;4.78;;;4.38;;
20065;SDS011;10193;48.884;9.182;2022-10-20T00:05:26;4.47;;;4.13;;
20065;SDS011;10193;48.884;9.182;2022-10-20T00:07:53;4.53;;;4.15;;
20065;SDS011;10193;48.884;9.182;2022-10-20T00:10:20;4.82;;;4.43;;
20065;SDS011;10193;48.884;9.182;2022-10-20T00:12:46;4.63;;;4.22;;
20065;SDS011;10193;48.884;9.182;2022-10-20T00:15:13;4.80;;;4.40;;
20065;SDS011;10193;48.884;9.182;2022-10-20T00:17:40;4.13;;;3.83;;
20065;SDS011;10193;48.884;9.182;2022-10-20T00:20:10;4.90;;;4.50;;
20065;SDS011;10193;48.884;9.182;2022-10-20T00:22:37;4.68;;;4.28;;
20065;SDS011;10193;48.884;9.182;2022-10-20T00:25:04;4.85;;;4.45;;
20065;SDS011;10193;48.884;9.182;2022-10-20T00:27:31;4.70;;;4.30;;
20065;SDS011;10193;48.884;9.182;2022-10-20T00:29:58;4.63;;;4.22;;
20065;SDS011;10193;48.884;9.182;2022-10-20T00:32:25;4.60;;;4.20;;
20065;SDS011;10193;48.884;9.182;2022-10-20T00:34:53;4.78;;;4.13;;
20065;SDS011;10193;48.884;9.182;2022-10-20T00:37:22;5.88;;;4.40;;
20065;SDS011;10193;48.884;9.182;2022-10-20T00:39:48;4.82;;;4.40;;
20065;SDS011;10193;48.884;9.182;2022-10-20T00:42:16;4.38;;;3.95;;
20065;SDS011;10193;48.884;9.182;2022-10-20T00:44:53;4.82;;;4.35;;
20065;SDS011;10193;48.884;9.182;2022-10-20T00:47:24;4.45;;;4.10;;
20065;SDS011;10193;48.884;9.182;2022-10-20T00:49:59;4.43;;;4.03;;
20065;SDS011;10193;48.884;9.182;2022-10-20T00:52:31;4.70;;;4.30;;
20065;SDS011;10193;48.884;9.182;2022-10-20T00:54:59;4.97;;;4.32;;
20065;SDS011;10193;48.884;9.182;2022-10-20T00:57:27;4.57;;;4.18;;
20065;SDS011;10193;48.884;9.182;2022-10-20T00:59:56;4.45;;;4.15;;
20065;SDS011;10193;48.884;9.182;2022-10-20T01:02:23;4.90;;;4.50;;
20065;SDS011;10193;48.884;9.182;2022-10-20T01:04:50;4.85;;;4.45;;
20065;SDS011;10193;48.884;9.182;2022-10-20T01:07:17;4.97;;;4.57;;
20065;SDS011;10193;48.884;9.182;2022-10-20T01:09:45;4.70;;;4.30;;
20065;SDS011;10193;48.884;9.182;2022-10-20T01:12:14;4.80;;;4.40;;
20065;SDS011;10193;48.884;9.182;2022-10-20T01:15:05;4.75;;;4.35;;
20065;SDS011;10193;48.884;9.182;2022-10-20T01:17:39;4.80;;;4.40;;
20065;SDS011;10193;48.884;9.182;2022-10-20T01:20:19;4.97;;;4.32;;
20065;SDS011;10193;48.884;9.182;2022-10-20T01:26:05;4.72;;;4.30;;
20065;SDS011;10193;48.884;9.182;2022-10-20T01:28:53;4.75;;;4.35;;
20065;SDS011;10193;48.884;9.182;2022-10-20T01:31:25;6.07;;;4.78;;
20065;SDS011;10193;48.884;9.182;2022-10-20T01:33:57;4.85;;;4.45;;
20065;SDS011;10193;48.884;9.182;2022-10-20T01:36:33;5.43;;;4.93;;
20065;SDS011;10193;48.884;9.182;2022-10-20T01:39:03;4.82;;;4.43;;
20065;SDS011;10193;48.884;9.182;2022-10-20T01:41:34;5.20;;;4.70;;
20065;SDS011;10193;48.884;9.182;2022-10-20T01:44:10;4.80;;;4.20;;
20065;SDS011;10193;48.884;9.182;2022-10-20T01:46:40;5.22;;;4.72;;
20065;SDS011;10193;48.884;9.182;2022-10-20T01:49:08;4.70;;;4.30;;
20065;SDS011;10193;48.884;9.182;2022-10-20T01:51:36;4.93;;;4.43;;
20065;SDS011;10193;48.884;9.182;2022-10-20T01:54:03;5.03;;;4.57;;
20065;SDS011;10193;48.884;9.182;2022-10-20T01:56:32;5.00;;;4.53;;
20065;SDS011;10193;48.884;9.182;2022-10-20T01:59:22;5.68;;;4.72;;
20065;SDS011;10193;48.884;9.182;2022-10-20T02:01:59;4.90;;;4.50;;
20065;SDS011;10193;48.884;9.182;2022-10-20T02:04:45;4.95;;;4.40;;
20065;SDS011;10193;48.884;9.182;2022-10-20T02:07:24;4.95;;;4.45;;
20065;SDS011;10193;48.884;9.182;2022-10-20T02:09:54;5.10;;;4.63;;
20065;SDS011;10193;48.884;9.182;2022-10-20T02:12:26;5.57;;;5.07;;
20065;SDS011;10193;48.884;9.182;2022-10-20T02:14:58;5.47;;;4.97;;
20065;SDS011;10193;48.884;9.182;2022-10-20T02:17:27;5.25;;;4.70;;
20065;SDS011;10193;48.884;9.182;2022-10-20T02:19:54;5.55;;;4.80;;
20065;SDS011;10193;48.884;9.182;2022-10-20T02:22:22;5.22;;;4.82;;
20065;SDS011;10193;48.884;9.182;2022-10-20T02:24:49;5.60;;;5.10;;
20065;SDS011;10193;48.884;9.182;2022-10-20T02:27:19;5.18;;;4.70;;
20065;SDS011;10193;48.884;9.182;2022-10-20T02:29:51;5.00;;;4.60;;
20065;SDS011;10193;48.884;9.182;2022-10-20T02:32:22;5.15;;;4.68;;
20065;SDS011;10193;48.884;9.182;2022-10-20T02:34:50;5.07;;;4.68;;
20065;SDS011;10193;48.884;9.182;2022-10-20T02:37:17;5.00;;;4.47;;
20065;SDS011;10193;48.884;9.182;2022-10-20T02:39:44;5.13;;;4.63;;
20065;SDS011;10193;48.884;9.182;2022-10-20T02:42:10;5.25;;;4.70;;
20065;SDS011;10193;48.884;9.182;2022-10-20T02:44:37;5.03;;;4.53;;
20065;SDS011;10193;48.884;9.182;2022-10-20T02:47:04;4.78;;;4.35;;
20065;SDS011;10193;48.884;9.182;2022-10-20T02:49:32;5.57;;;5.07;;
20065;SDS011;10193;48.884;9.182;2022-10-20T02:51:59;5.45;;;4.95;;
20065;SDS011;10193;48.884;9.182;2022-10-20T02:54:26;5.50;;;5.00;;
20065;SDS011;10193;48.884;9.182;2022-10-20T02:56:53;5.50;;;5.00;;
20065;SDS011;10193;48.884;9.182;2022-10-20T02:59:20;4.80;;;4.40;;
20065;SDS011;10193;48.884;9.182;2022-10-20T03:01:47;5.25;;;4.80;;
20065;SDS011;10193;48.884;9.182;2022-10-20T03:04:15;5.35;;;4.80;;
20065;SDS011;10193;48.884;9.182;2022-10-20T03:06:43;4.75;;;4.35;;
20065;SDS011;10193;48.884;9.182;2022-10-20T03:09:10;4.90;;;4.50;;
20065;SDS011;10193;48.884;9.182;2022-10-20T03:11:37;5.15;;;4.65;;
20065;SDS011;10193;48.884;9.182;2022-10-20T03:14:04;5.25;;;4.75;;
20065;SDS011;10193;48.884;9.182;2022-10-20T03:16:30;5.15;;;4.70;;
20065;SDS011;10193;48.884;9.182;2022-10-20T03:18:57;4.95;;;4.50;;
20065;SDS011;10193;48.884;9.182;2022-10-20T03:21:24;5.35;;;4.85;;
20065;SDS011;10193;48.884;9.182;2022-10-20T03:23:52;5.13;;;4.63;;
20065;SDS011;10193;48.884;9.182;2022-10-20T03:26:20;5.15;;;4.65;;
20065;SDS011;10193;48.884;9.182;2022-10-20T03:28:46;5.22;;;4.72;;
20065;SDS011;10193;48.884;9.182;2022-10-20T03:31:13;5.40;;;4.80;;
20065;SDS011;10193;48.884;9.182;2022-10-20T03:33:40;5.40;;;4.90;;
20065;SDS011;10193;48.884;9.182;2022-10-20T03:36:07;5.20;;;4.70;;
20065;SDS011;10193;48.884;9.182;2022-10-20T03:38:34;5.60;;;4.82;;
20065;SDS011;10193;48.884;9.182;2022-10-20T03:41:02;5.10;;;4.68;;
20065;SDS011;10193;48.884;9.182;2022-10-20T03:43:29;5.75;;;4.88;;
20065;SDS011;10193;48.884;9.182;2022-10-20T03:45:59;5.47;;;4.95;;
20065;SDS011;10193;48.884;9.182;2022-10-20T03:48:27;5.60;;;4.93;;
20065;SDS011;10193;48.884;9.182;2022-10-20T03:50:54;5.68;;;4.90;;
20065;SDS011;10193;48.884;9.182;2022-10-20T03:53:21;6.60;;;5.07;;
20065;SDS011;10193;48.884;9.182;2022-10-20T03:55:49;5.55;;;5.05;;
20065;SDS011;10193;48.884;9.182;2022-10-20T03:58:17;5.30;;;4.75;;
20065;SDS011;10193;48.884;9.182;2022-10-20T04:00:44;5.13;;;4.63;;
20065;SDS011;10193;48.884;9.182;2022-10-20T04:03:11;5.35;;;4.72;;
20065;SDS011;10193;48.884;9.182;2022-10-20T04:05:38;5.72;;;5.22;;
20065;SDS011;10193;48.884;9.182;2022-10-20T04:08:05;5.10;;;4.60;;
20065;SDS011;10193;48.884;9.182;2022-10-20T04:10:32;6.03;;;5.43;;
20065;SDS011;10193;48.884;9.182;2022-10-20T04:13:00;5.95;;;4.90;;
20065;SDS011;10193;48.884;9.182;2022-10-20T04:15:29;5.63;;;5.13;;
20065;SDS011;10193;48.884;9.182;2022-10-20T04:17:56;6.22;;;4.97;;
20065;SDS011;10193;48.884;9.182;2022-10-20T04:20:23;5.50;;;4.95;;
20065;SDS011;10193;48.884;9.182;2022-10-20T04:22:50;5.15;;;4.72;;
20065;SDS011;10193;48.884;9.182;2022-10-20T04:25:17;6.70;;;5.20;;
20065;SDS011;10193;48.884;9.182;2022-10-20T04:27:44;5.88;;;5.28;;
20065;SDS011;10193;48.884;9.182;2022-10-20T04:30:11;5.32;;;4.82;;
20065;SDS011;10193;48.884;9.182;2022-10-20T04:32:39;6.00;;;5.40;;
20065;SDS011;10193;48.884;9.182;2022-10-20T04:35:06;6.22;;;5.63;;
20065;SDS011;10193;48.884;9.182;2022-10-20T04:37:34;6.80;;;5.68;;
20065;SDS011;10193;48.884;9.182;2022-10-20T04:40:01;7.13;;;5.55;;
20065;SDS011;10193;48.884;9.182;2022-10-20T04:42:28;5.82;;;5.32;;
20065;SDS011;10193;48.884;9.182;2022-10-20T04:44:57;7.70;;;5.97;;
20065;SDS011;10193;48.884;9.182;2022-10-20T04:47:24;5.90;;;5.38;;
20065;SDS011;10193;48.884;9.182;2022-10-20T04:49:52;6.20;;;5.60;;
20065;SDS011;10193;48.884;9.182;2022-10-20T04:52:19;6.28;;;5.30;;
20065;SDS011;10193;48.884;9.182;2022-10-20T04:54:46;6.60;;;5.75;;
20065;SDS011;10193;48.884;9.182;2022-10-20T04:57:13;6.85;;;5.97;;
20065;SDS011;10193;48.884;9.182;2022-10-20T04:59:39;6.30;;;5.68;;
20065;SDS011;10193;48.884;9.182;2022-10-20T05:02:07;6.60;;;5.72;;
20065;SDS011;10193;48.884;9.182;2022-10-20T05:04:35;7.05;;;6.07;;
20065;SDS011;10193;48.884;9.182;2022-10-20T05:07:03;9.95;;;7.20;;
20065;SDS011;10193;48.884;9.182;2022-10-20T05:09:30;6.25;;;5.63;;
20065;SDS011;10193;48.884;9.182;2022-10-20T05:11:57;6.88;;;5.90;;
20065;SDS011;10193;48.884;9.182;2022-10-20T05:14:24;6.72;;;5.97;;
20065;SDS011;10193;48.884;9.182;2022-10-20T05:16:51;6.50;;;5.88;;
20065;SDS011;10193;48.884;9.182;2022-10-20T05:19:18;6.65;;;5.95;;
20065;SDS011;10193;48.884;9.182;2022-10-20T05:21:45;7.38;;;5.80;;
20065;SDS011;10193;48.884;9.182;2022-10-20T05:24:14;7.03;;;6.32;;
20065;SDS011;10193;48.884;9.182;2022-10-20T05:26:42;6.68;;;5.88;;
20065;SDS011;10193;48.884;9.182;2022-10-20T05:29:09;7.57;;;5.97;;
20065;SDS011;10193;48.884;9.182;2022-10-20T05:31:37;7.15;;;5.70;;
20065;SDS011;10193;48.884;9.182;2022-10-20T05:34:04;6.78;;;5.72;;
20065;SDS011;10193;48.884;9.182;2022-10-20T05:36:32;6.88;;;6.10;;
20065;SDS011;10193;48.884;9.182;2022-10-20T05:38:59;6.40;;;5.50;;
20065;SDS011;10193;48.884;9.182;2022-10-20T05:41:28;6.95;;;6.15;;
20065;SDS011;10193;48.884;9.182;2022-10-20T05:43:56;6.95;;;6.03;;
20065;SDS011;10193;48.884;9.182;2022-10-20T05:46:25;6.72;;;5.50;;
20065;SDS011;10193;48.884;9.182;2022-10-20T05:48:54;7.35;;;5.97;;
20065;SDS011;10193;48.884;9.182;2022-10-20T05:51:22;7.03;;;6.25;;
20065;SDS011;10193;48.884;9.182;2022-10-20T05:53:50;7.72;;;5.78;;
20065;SDS011;10193;48.884;9.182;2022-10-20T05:56:19;6.47;;;5.85;;
20065;SDS011;10193;48.884;9.182;2022-10-20T05:58:48;5.97;;;5.22;;
20065;SDS011;10193;48.884;9.182;2022-10-20T06:01:15;6.30;;;5.70;;
20065;SDS011;10193;48.884;9.182;2022-10-20T06:03:46;6.47;;;5.78;;
20065;SDS011;10193;48.884;9.182;2022-10-20T06:06:13;6.20;;;5.28;;
20065;SDS011;10193;48.884;9.182;2022-10-20T06:08:40;5.97;;;5.38;;
20065;SDS011;10193;48.884;9.182;2022-10-20T06:11:08;7.47;;;6.05;;
20065;SDS011;10193;48.884;9.182;2022-10-20T06:13:35;6.18;;;5.57;;
20065;SDS011;10193;48.884;9.182;2022-10-20T06:16:05;6.10;;;5.50;;
20065;SDS011;10193;48.884;9.182;2022-10-20T06:18:34;6.05;;;5.35;;
20065;SDS011;10193;48.884;9.182;2022-10-20T06:21:03;5.90;;;5.30;;
20065;SDS011;10193;48.884;9.182;2022-10-20T06:23:31;6.30;;;5.68;;
20065;SDS011;10193;48.884;9.182;2022-10-20T06:26:02;7.68;;;5.32;;
20065;SDS011;10193;48.884;9.182;2022-10-20T06:28:30;6.95;;;5.53;;
20065;SDS011;10193;48.884;9.182;2022-10-20T06:30:58;6.10;;;5.40;;
20065;SDS011;10193;48.884;9.182;2022-10-20T06:33:29;6.72;;;5.50;;
20065;SDS011;10193;48.884;9.182;2022-10-20T06:35:57;5.38;;;4.88;;
20065;SDS011;10193;48.884;9.182;2022-10-20T06:38:25;5.53;;;4.68;;
20065;SDS011;10193;48.884;9.182;2022-10-20T06:40:52;5.65;;;4.97;;
20065;SDS011;10193;48.884;9.182;2022-10-20T06:43:19;5.30;;;4.80;;
20065;SDS011;10193;48.884;9.182;2022-10-20T06:45:52;5.53;;;5.03;;
20065;SDS011;10193;48.884;9.182;2022-10-20T06:48:19;5.25;;;4.72;;
20065;SDS011;10193;48.884;9.182;2022-10-20T06:50:47;5.30;;;4.80;;
20065;SDS011;10193;48.884;9.182;2022-10-20T06:53:14;5.28;;;4.78;;
20065;SDS011;10193;48.884;9.182;2022-10-20T06:55:41;5.20;;;4.70;;
20065;SDS011;10193;48.884;9.182;2022-10-20T06:58:08;5.40;;;4.90;;
20065;SDS011;10193;48.884;9.182;2022-10-20T07:00:35;5.38;;;4.88;;
20065;SDS011;10193;48.884;9.182;2022-10-20T07:03:02;4.95;;;4.47;;
20065;SDS011;10193;48.884;9.182;2022-10-20T07:05:29;4.93;;;4.53;;
20065;SDS011;10193;48.884;9.182;2022-10-20T07:07:58;4.93;;;4.43;;
20065;SDS011;10193;48.884;9.182;2022-10-20T07:10:24;5.13;;;4.38;;
20065;SDS011;10193;48.884;9.182;2022-10-20T07:12:51;5.13;;;4.57;;
20065;SDS011;10193;48.884;9.182;2022-10-20T07:15:18;4.43;;;4.03;;
20065;SDS011;10193;48.884;9.182;2022-10-20T07:17:45;5.05;;;4.55;;
20065;SDS011;10193;48.884;9.182;2022-10-20T07:20:13;5.10;;;4.60;;
20065;SDS011;10193;48.884;9.182;2022-10-20T07:22:39;4.82;;;4.30;;
20065;SDS011;10193;48.884;9.182;2022-10-20T07:25:08;4.57;;;4.18;;
20065;SDS011;10193;48.884;9.182;2022-10-20T07:27:35;4.43;;;4.03;;
20065;SDS011;10193;48.884;9.182;2022-10-20T07:30:02;4.75;;;4.20;;
20065;SDS011;10193;48.884;9.182;2022-10-20T07:32:29;4.45;;;4.05;;
20065;SDS011;10193;48.884;9.182;2022-10-20T07:34:56;4.75;;;4.35;;
20065;SDS011;10193;48.884;9.182;2022-10-20T07:37:23;4.60;;;4.20;;
20065;SDS011;10193;48.884;9.182;2022-10-20T07:39:50;4.40;;;4.10;;
20065;SDS011;10193;48.884;9.182;2022-10-20T07:42:18;4.93;;;4.53;;
20065;SDS011;10193;48.884;9.182;2022-10-20T07:47:20;4.55;;;3.85;;
20065;SDS011;10193;48.884;9.182;2022-10-20T07:49:47;4.10;;;3.70;;
20065;SDS011;10193;48.884;9.182;2022-10-20T07:52:13;4.40;;;4.00;;
20065;SDS011;10193;48.884;9.182;2022-10-20T07:54:40;4.28;;;3.88;;
20065;SDS011;10193;48.884;9.182;2022-10-20T07:57:07;4.45;;;4.05;;
20065;SDS011;10193;48.884;9.182;2022-10-20T07:59:35;3.97;;;3.65;;
20065;SDS011;10193;48.884;9.182;2022-10-20T08:02:02;3.83;;;3.53;;
20065;SDS011;10193;48.884;9.182;2022-10-20T08:04:29;4.43;;;3.70;;
20065;SDS011;10193;48.884;9.182;2022-10-20T08:06:55;4.20;;;3.80;;
20065;SDS011;10193;48.884;9.182;2022-10-20T08:09:22;3.92;;;3.63;;
20065;SDS011;10193;48.884;9.182;2022-10-20T08:11:49;3.90;;;3.50;;
20065;SDS011;10193;48.884;9.182;2022-10-20T08:14:16;3.83;;;3.53;;
20065;SDS011;10193;48.884;9.182;2022-10-20T08:16:44;3.83;;;3.53;;
20065;SDS011;10193;48.884;9.182;2022-10-20T08:19:11;3.72;;;3.42;;
20065;SDS011;10193;48.884;9.182;2022-10-20T08:21:38;3.75;;;3.38;;
20065;SDS011;10193;48.884;9.182;2022-10-20T08:24:04;3.30;;;3.08;;
20065;SDS011;10193;48.884;9.182;2022-10-20T08:26:31;3.92;;;3.63;;
20065;SDS011;10193;48.884;9.182;2022-10-20T08:28:58;3.42;;;3.22;;
20065;SDS011;10193;48.884;9.182;2022-10-20T08:31:26;3.60;;;3.30;;
20065;SDS011;10193;48.884;9.182;2022-10-20T08:33:54;3.40;;;3.20;;
20065;SDS011;10193;48.884;9.182;2022-10-20T08:36:21;3.40;;;3.20;;
20065;SDS011;10193;48.884;9.182;2022-10-20T08:38:48;3.38;;;2.92;;
20065;SDS011;10193;48.884;9.182;2022-10-20T08:41:16;3.10;;;2.90;;
20065;SDS011;10193;48.884;9.182;2022-10-20T08:43:46;3.50;;;2.80;;
20065;SDS011;10193;48.884;9.182;2022-10-20T08:46:16;2.83;;;2.63;;
20065;SDS011;10193;48.884;9.182;2022-10-20T08:48:45;2.85;;;2.65;;
20065;SDS011;10193;48.884;9.182;2022-10-20T08:51:16;3.20;;;3.00;;
20065;SDS011;10193;48.884;9.182;2022-10-20T08:53:44;3.08;;;2.88;;
20065;SDS011;10193;48.884;9.182;2022-10-20T08:56:14;3.15;;;2.92;;
20065;SDS011;10193;48.884;9.182;2022-10-20T08:58:42;2.80;;;2.60;;
20065;SDS011;10193;48.884;9.182;2022-10-20T09:01:13;2.90;;;2.70;;
20065;SDS011;10193;48.884;9.182;2022-10-20T09:03:53;2.78;;;2.58;;
20065;SDS011;10193;48.884;9.182;2022-10-20T09:06:22;2.85;;;2.65;;
20065;SDS011;10193;48.884;9.182;2022-10-20T09:08:50;2.92;;;2.72;;
20065;SDS011;10193;48.884;9.182;2022-10-20T09:11:18;2.85;;;2.70;;
20065;SDS011;10193;48.884;9.182;2022-10-20T09:13:48;2.97;;;2.78;;
20065;SDS011;10193;48.884;9.182;2022-10-20T09:16:17;3.25;;;2.80;;
20065;SDS011;10193;48.884;9.182;2022-10-20T09:18:51;3.00;;;2.80;;
20065;SDS011;10193;48.884;9.182;2022-10-20T09:21:23;3.00;;;2.75;;
20065;SDS011;10193;48.884;9.182;2022-10-20T09:23:50;2.75;;;2.55;;
20065;SDS011;10193;48.884;9.182;2022-10-20T09:26:19;3.28;;;2.83;;
20065;SDS011;10193;48.884;9.182;2022-10-20T09:28:47;3.28;;;2.70;;
20065;SDS011;10193;48.884;9.182;2022-10-20T09:31:19;2.95;;;2.75;;
20065;SDS011;10193;48.884;9.182;2022-10-20T09:33:48;2.95;;;2.75;;
20065;SDS011;10193;48.884;9.182;2022-10-20T09:36:15;2.97;;;2.78;;
20065;SDS011;10193;48.884;9.182;2022-10-20T09:38:45;3.17;;;2.80;;
20065;SDS011;10193;48.884;9.182;2022-10-20T09:41:14;3.17;;;2.78;;
20065;SDS011;10193;48.884;9.182;2022-10-20T09:43:47;2.90;;;2.70;;
20065;SDS011;10193;48.884;9.182;2022-10-20T09:46:17;2.78;;;2.50;;
20065;SDS011;10193;48.884;9.182;2022-10-20T09:48:48;4.07;;;2.70;;
20065;SDS011;10193;48.884;9.182;2022-10-20T09:51:16;3.15;;;2.55;;
20065;SDS011;10193;48.884;9.182;2022-10-20T09:53:51;2.85;;;2.65;;
20065;SDS011;10193;48.884;9.182;2022-10-20T09:56:26;2.55;;;2.40;;
20065;SDS011;10193;48.884;9.182;2022-10-20T09:58:55;2.90;;;2.70;;
20065;SDS011;10193;48.884;9.182;2022-10-20T10:01:24;2.90;;;2.70;;
20065;SDS011;10193;48.884;9.182;2022-10-20T10:03:51;2.95;;;2.75;;
20065;SDS011;10193;48.884;9.182;2022-10-20T10:06:25;2.92;;;2.72;;
20065;SDS011;10193;48.884;9.182;2022-10-20T10:08:56;3.13;;;2.88;;
20065;SDS011;10193;48.884;9.182;2022-10-20T10:11:27;3.20;;;3.00;;
20065;SDS011;10193;48.884;9.182;2022-10-20T10:13:58;3.30;;;3.00;;
20065;SDS011;10193;48.884;9.182;2022-10-20T10:16:25;3.15;;;2.85;;
20065;SDS011;10193;48.884;9.182;2022-10-20T10:18:53;3.20;;;2.90;;
20065;SDS011;10193;48.884;9.182;2022-10-20T10:21:22;3.15;;;2.95;;
20065;SDS011;10193;48.884;9.182;2022-10-20T10:23:50;3.20;;;2.90;;
20065;SDS011;10193;48.884;9.182;2022-10-20T10:26:41;3.20;;;3.00;;
20065;SDS011;10193;48.884;9.182;2022-10-20T10:29:22;3.17;;;2.90;;
20065;SDS011;10193;48.884;9.182;2022-10-20T10:31:52;3.45;;;3.20;;
20065;SDS011;10193;48.884;9.182;2022-10-20T10:34:36;3.10;;;2.80;;
20065;SDS011;10193;48.884;9.182;2022-10-20T10:37:09;3.03;;;2.70;;
20065;SDS011;10193;48.884;9.182;2022-10-20T10:39:38;2.85;;;2.67;;
20065;SDS011;10193;48.884;9.182;2022-10-20T10:42:11;3.38;;;3.08;;
20065;SDS011;10193;48.884;9.182;2022-10-20T10:45:07;3.00;;;2.80;;
20065;SDS011;10193;48.884;9.182;2022-10-20T10:47:47;2.80;;;2.60;;
20065;SDS011;10193;48.884;9.182;2022-10-20T10:50:38;2.95;;;2.60;;
20065;SDS011;10193;48.884;9.182;2022-10-20T10:53:12;2.90;;;2.70;;
20065;SDS011;10193;48.884;9.182;2022-10-20T10:55:53;2.72;;;2.40;;
20065;SDS011;10193;48.884;9.182;2022-10-20T10:58:34;3.53;;;3.22;;
20065;SDS011;10193;48.884;9.182;2022-10-20T11:01:17;3.30;;;3.00;;
20065;SDS011;10193;48.884;9.182;2022-10-20T11:03:57;3.95;;;2.72;;
20065;SDS011;10193;48.884;9.182;2022-10-20T11:06:49;2.85;;;2.65;;
20065;SDS011;10193;48.884;9.182;2022-10-20T11:09:24;3.00;;;2.78;;
20065;SDS011;10193;48.884;9.182;2022-10-20T11:12:02;2.70;;;2.58;;
20065;SDS011;10193;48.884;9.182;2022-10-20T11:15:00;2.92;;;2.70;;
20065;SDS011;10193;48.884;9.182;2022-10-20T11:17:43;2.75;;;2.55;;
20065;SDS011;10193;48.884;9.182;2022-10-20T11:20:26;3.20;;;2.90;;
20065;SDS011;10193;48.884;9.182;2022-10-20T11:23:06;2.88;;;2.55;;
20065;SDS011;10193;48.884;9.182;2022-10-20T11:25:48;3.42;;;2.70;;
20065;SDS011;10193;48.884;9.182;2022-10-20T11:28:24;3.67;;;2.78;;
20065;SDS011;10193;48.884;9.182;2022-10-20T11:30:57;2.95;;;2.65;;
20065;SDS011;10193;48.884;9.182;2022-10-20T11:33:25;2.75;;;2.55;;
20065;SDS011;10193;48.884;9.182;2022-10-20T11:35:55;2.80;;;2.60;;
20065;SDS011;10193;48.884;9.182;2022-10-20T11:38:28;3.25;;;2.95;;
20065;SDS011;10193;48.884;9.182;2022-10-20T11:41:02;2.85;;;2.65;;
20065;SDS011;10193;48.884;9.182;2022-10-20T11:43:31;2.88;;;2.53;;
20065;SDS011;10193;48.884;9.182;2022-10-20T11:46:04;3.22;;;2.88;;
20065;SDS011;10193;48.884;9.182;2022-10-20T11:48:35;4.00;;;2.83;;
20065;SDS011;10193;48.884;9.182;2022-10-20T11:51:19;2.83;;;2.58;;
20065;SDS011;10193;48.884;9.182;2022-10-20T11:54:04;2.65;;;2.42;;
20065;SDS011;10193;48.884;9.182;2022-10-20T11:56:52;2.63;;;2.42;;
20065;SDS011;10193;48.884;9.182;2022-10-20T11:59:40;2.80;;;2.55;;
20065;SDS011;10193;48.884;9.182;2022-10-20T12:02:24;3.05;;;2.50;;
20065;SDS011;10193;48.884;9.182;2022-10-20T12:05:19;2.72;;;2.53;;
20065;SDS011;10193;48.884;9.182;2022-10-20T12:08:13;2.80;;;2.50;;
20065;SDS011;10193;48.884;9.182;2022-10-20T12:10:48;3.97;;;2.67;;
20065;SDS011;10193;48.884;9.182;2022-10-20T12:13:26;2.78;;;2.55;;
20065;SDS011;10193;48.884;9.182;2022-10-20T12:16:00;2.17;;;2.08;;
20065;SDS011;10193;48.884;9.182;2022-10-20T12:18:29;3.03;;;2.35;;
20065;SDS011;10193;48.884;9.182;2022-10-20T12:20:57;2.47;;;2.28;;
20065;SDS011;10193;48.884;9.182;2022-10-20T12:26:35;2.40;;;2.20;;
20065;SDS011;10193;48.884;9.182;2022-10-20T12:38:27;2.20;;;2.00;;
20065;SDS011;10193;48.884;9.182;2022-10-20T12:40:56;3.10;;;2.33;;
20065;SDS011;10193;48.884;9.182;2022-10-20T12:46:19;2.47;;;2.28;;
20065;SDS011;10193;48.884;9.182;2022-10-20T12:48:48;2.33;;;2.13;;
20065;SDS011;10193;48.884;9.182;2022-10-20T12:51:34;2.47;;;2.20;;
20065;SDS011;10193;48.884;9.182;2022-10-20T12:54:06;2.45;;;2.25;;
20065;SDS011;10193;48.884;9.182;2022-10-20T12:56:41;2.72;;;2.53;;
20065;SDS011;10193;48.884;9.182;2022-10-20T12:59:19;2.47;;;2.28;;
20065;SDS011;10193;48.884;9.182;2022-10-20T13:05:27;3.13;;;2.35;;
20065;SDS011;10193;48.884;9.182;2022-10-20T13:14:13;2.20;;;2.05;;
20065;SDS011;10193;48.884;9.182;2022-10-20T13:16:56;2.60;;;2.20;;
20065;SDS011;10193;48.884;9.182;2022-10-20T13:19:29;2.35;;;2.15;;
20065;SDS011;10193;48.884;9.182;2022-10-20T13:24:54;2.63;;;2.42;;
20065;SDS011;10193;48.884;9.182;2022-10-20T13:27:22;2.45;;;2.33;;
20065;SDS011;10193;48.884;9.182;2022-10-20T13:29:50;3.33;;;2.35;;
20065;SDS011;10193;48.884;9.182;2022-10-20T13:32:17;2.95;;;2.75;;
20065;SDS011;10193;48.884;9.182;2022-10-20T13:34:50;2.72;;;2.53;;
20065;SDS011;10193;48.884;9.182;2022-10-20T13:37:26;2.55;;;2.33;;
20065;SDS011;10193;48.884;9.182;2022-10-20T13:40:08;3.38;;;2.83;;
20065;SDS011;10193;48.884;9.182;2022-10-20T13:42:44;2.83;;;2.60;;
20065;SDS011;10193;48.884;9.182;2022-10-20T13:45:23;2.88;;;2.67;;
20065;SDS011;10193;48.884;9.182;2022-10-20T13:48:16;3.03;;;2.83;;
20065;SDS011;10193;48.884;9.182;2022-10-20T13:50:54;2.65;;;2.45;;
20065;SDS011;10193;48.884;9.182;2022-10-20T13:53:24;3.28;;;2.50;;
20065;SDS011;10193;48.884;9.182;2022-10-20T13:55:54;2.58;;;2.38;;
20065;SDS011;10193;48.884;9.182;2022-10-20T13:58:25;2.85;;;2.47;;
20065;SDS011;10193;48.884;9.182;2022-10-20T14:00:55;3.05;;;2.80;;
20065;SDS011;10193;48.884;9.182;2022-10-20T14:03:25;3.78;;;2.63;;
20065;SDS011;10193;48.884;9.182;2022-10-20T14:05:53;2.85;;;2.65;;
20065;SDS011;10193;48.884;9.182;2022-10-20T14:08:20;3.65;;;2.53;;
20065;SDS011;10193;48.884;9.182;2022-10-20T14:10:48;2.50;;;2.30;;
20065;SDS011;10193;48.884;9.182;2022-10-20T14:13:17;2.70;;;2.50;;
20065;SDS011;10193;48.884;9.182;2022-10-20T14:15:47;2.75;;;2.55;;
20065;SDS011;10193;48.884;9.182;2022-10-20T14:18:19;2.60;;;2.40;;
20065;SDS011;10193;48.884;9.182;2022-10-20T14:20:56;3.13;;;2.78;;
20065;SDS011;10193;48.884;9.182;2022-10-20T14:23:27;3.22;;;2.78;;
20065;SDS011;10193;48.884;9.182;2022-10-20T14:25:58;2.97;;;2.78;;
20065;SDS011;10193;48.884;9.182;2022-10-20T14:28:26;3.05;;;2.75;;
20065;SDS011;10193;48.884;9.182;2022-10-20T14:30:57;2.90;;;2.70;;
20065;SDS011;10193;48.884;9.182;2022-10-20T14:33:24;3.03;;;2.83;;
20065;SDS011;10193;48.884;9.182;2022-10-20T14:35:52;3.97;;;2.90;;
20065;SDS011;10193;48.884;9.182;2022-10-20T14:38:22;3.28;;;3.03;;
20065;SDS011;10193;48.884;9.182;2022-10-20T14:40:53;2.70;;;2.50;;
20065;SDS011;10193;48.884;9.182;2022-10-20T14:43:23;3.28;;;2.78;;
20065;SDS011;10193;48.884;9.182;2022-10-20T14:45:56;3.05;;;2.85;;
20065;SDS011;10193;48.884;9.182;2022-10-20T14:48:26;3.00;;;2.80;;
20065;SDS011;10193;48.884;9.182;2022-10-20T14:50:58;3.10;;;2.90;;
20065;SDS011;10193;48.884;9.182;2022-10-20T14:53:28;4.05;;;3.17;;
20065;SDS011;10193;48.884;9.182;2022-10-20T14:55:56;3.30;;;3.00;;
20065;SDS011;10193;48.884;9.182;2022-10-20T14:58:32;3.80;;;2.70;;
20065;SDS011;10193;48.884;9.182;2022-10-20T15:01:19;6.10;;;2.90;;
20065;SDS011;10193;48.884;9.182;2022-10-20T15:04:03;3.17;;;2.97;;
20065;SDS011;10193;48.884;9.182;2022-10-20T15:06:31;3.30;;;2.95;;
20065;SDS011;10193;48.884;9.182;2022-10-20T15:08:59;3.25;;;3.05;;
20065;SDS011;10193;48.884;9.182;2022-10-20T15:11:27;3.60;;;3.17;;
20065;SDS011;10193;48.884;9.182;2022-10-20T15:13:56;3.08;;;2.88;;
20065;SDS011;10193;48.884;9.182;2022-10-20T15:16:31;3.30;;;3.00;;
20065;SDS011;10193;48.884;9.182;2022-10-20T15:19:16;3.40;;;3.10;;
20065;SDS011;10193;48.884;9.182;2022-10-20T15:21:52;3.70;;;2.90;;
20065;SDS011;10193;48.884;9.182;2022-10-20T15:24:25;3.42;;;3.20;;
20065;SDS011;10193;48.884;9.182;2022-10-20T15:26:52;3.45;;;3.15;;
20065;SDS011;10193;48.884;9.182;2022-10-20T15:29:19;3.92;;;3.60;;
20065;SDS011;10193;48.884;9.182;2022-10-20T15:31:45;4.18;;;3.20;;
20065;SDS011;10193;48.884;9.182;2022-10-20T15:34:12;3.17;;;2.97;;
20065;SDS011;10193;48.884;9.182;2022-10-20T15:36:39;7.43;;;3.38;;
20065;SDS011;10193;48.884;9.182;2022-10-20T15:39:06;3.47;;;3.17;;
20065;SDS011;10193;48.884;9.182;2022-10-20T15:41:34;3.88;;;3.58;;